sensor_id;sensor_type;location;lat;lon;timestamp;P1;durP1;ratioP1;P2;durP2;ratioP2
67595;SDS011;54410;48.694;8.934;2022-12-07T00:01:32;8.93;;;6.20;;
67595;SDS011;54410;48.694;8.934;2022-12-07T00:04:00;10.40;;;6.40;;
67595;SDS011;54410;48.694;8.934;2022-12-07T00:06:30;11.13;;;7.27;;
67595;SDS011;54410;48.694;8.934;2022-12-07T00:08:57;12.53;;;7.07;;
67595;SDS011;54410;48.694;8.934;2022-12-07T00:11:23;7.93;;;6.00;;
67595;SDS011;54410;48.694;8.934;2022-12-07T00:13:52;12.87;;;6.87;;
67595;SDS011;54410;48.694;8.934;2022-12-07T00:16:19;11.97;;;7.17;;
67595;SDS011;54410;48.694;8.934;2022-12-07T00:18:46;7.63;;;5.87;;
67595;SDS011;54410;48.694;8.934;2022-12-07T00:21:12;9.37;;;6.47;;
67595;SDS011;54410;48.694;8.934;2022-12-07T00:23:39;8.10;;;5.97;;
67595;SDS011;54410;48.694;8.934;2022-12-07T00:28:31;9.23;;;6.60;;
67595;SDS011;54410;48.694;8.934;2022-12-07T00:31:08;11.23;;;6.67;;
67595;SDS011;54410;48.694;8.934;2022-12-07T00:33:35;8.47;;;5.77;;
67595;SDS011;54410;48.694;8.934;2022-12-07T00:36:02;11.60;;;6.90;;
67595;SDS011;54410;48.694;8.934;2022-12-07T00:38:30;8.07;;;5.83;;
67595;SDS011;54410;48.694;8.934;2022-12-07T00:40:58;14.90;;;7.30;;
67595;SDS011;54410;48.694;8.934;2022-12-07T00:43:24;11.00;;;7.10;;
67595;SDS011;54410;48.694;8.934;2022-12-07T00:45:50;8.27;;;5.80;;
67595;SDS011;54410;48.694;8.934;2022-12-07T00:48:16;10.63;;;6.50;;
67595;SDS011;54410;48.694;8.934;2022-12-07T00:50:42;9.07;;;7.07;;
67595;SDS011;54410;48.694;8.934;2022-12-07T00:53:08;12.90;;;7.70;;
67595;SDS011;54410;48.694;8.934;2022-12-07T00:55:34;9.63;;;6.90;;
67595;SDS011;54410;48.694;8.934;2022-12-07T00:58:00;10.37;;;7.80;;
67595;SDS011;54410;48.694;8.934;2022-12-07T01:00:26;9.57;;;7.30;;
67595;SDS011;54410;48.694;8.934;2022-12-07T01:02:53;14.27;;;9.17;;
67595;SDS011;54410;48.694;8.934;2022-12-07T01:05:19;9.57;;;7.53;;
67595;SDS011;54410;48.694;8.934;2022-12-07T01:07:44;13.03;;;8.63;;
67595;SDS011;54410;48.694;8.934;2022-12-07T01:10:11;9.13;;;7.63;;
67595;SDS011;54410;48.694;8.934;2022-12-07T01:12:37;15.63;;;9.23;;
67595;SDS011;54410;48.694;8.934;2022-12-07T01:15:03;13.47;;;8.70;;
67595;SDS011;54410;48.694;8.934;2022-12-07T01:17:33;13.33;;;8.83;;
67595;SDS011;54410;48.694;8.934;2022-12-07T01:19:59;13.73;;;8.90;;
67595;SDS011;54410;48.694;8.934;2022-12-07T01:22:25;10.60;;;7.57;;
67595;SDS011;54410;48.694;8.934;2022-12-07T01:24:51;13.70;;;9.17;;
67595;SDS011;54410;48.694;8.934;2022-12-07T01:27:17;15.23;;;9.43;;
67595;SDS011;54410;48.694;8.934;2022-12-07T01:29:43;13.23;;;8.93;;
67595;SDS011;54410;48.694;8.934;2022-12-07T01:32:09;10.67;;;8.27;;
67595;SDS011;54410;48.694;8.934;2022-12-07T01:34:35;16.40;;;9.80;;
67595;SDS011;54410;48.694;8.934;2022-12-07T01:37:01;14.73;;;9.87;;
67595;SDS011;54410;48.694;8.934;2022-12-07T01:39:26;17.50;;;9.80;;
67595;SDS011;54410;48.694;8.934;2022-12-07T01:41:52;12.17;;;8.60;;
67595;SDS011;54410;48.694;8.934;2022-12-07T01:44:20;17.07;;;10.07;;
67595;SDS011;54410;48.694;8.934;2022-12-07T01:49:23;16.00;;;10.07;;
67595;SDS011;54410;48.694;8.934;2022-12-07T01:51:51;15.40;;;10.17;;
67595;SDS011;54410;48.694;8.934;2022-12-07T01:54:18;11.77;;;8.20;;
67595;SDS011;54410;48.694;8.934;2022-12-07T01:56:55;15.77;;;9.63;;
67595;SDS011;54410;48.694;8.934;2022-12-07T01:59:25;13.27;;;9.40;;
67595;SDS011;54410;48.694;8.934;2022-12-07T02:01:51;17.13;;;9.70;;
67595;SDS011;54410;48.694;8.934;2022-12-07T02:04:18;14.87;;;9.23;;
67595;SDS011;54410;48.694;8.934;2022-12-07T02:06:44;14.33;;;9.40;;
67595;SDS011;54410;48.694;8.934;2022-12-07T02:09:11;12.67;;;8.87;;
67595;SDS011;54410;48.694;8.934;2022-12-07T02:11:37;14.20;;;9.50;;
67595;SDS011;54410;48.694;8.934;2022-12-07T02:14:04;10.60;;;8.00;;
67595;SDS011;54410;48.694;8.934;2022-12-07T02:30:19;14.77;;;9.50;;
67595;SDS011;54410;48.694;8.934;2022-12-07T02:38:08;13.60;;;8.97;;
67595;SDS011;54410;48.694;8.934;2022-12-07T02:40:57;11.17;;;8.63;;
67595;SDS011;54410;48.694;8.934;2022-12-07T02:43:27;15.23;;;9.47;;
67595;SDS011;54410;48.694;8.934;2022-12-07T02:45:55;13.53;;;8.57;;
67595;SDS011;54410;48.694;8.934;2022-12-07T02:48:26;14.60;;;8.70;;
67595;SDS011;54410;48.694;8.934;2022-12-07T02:50:54;10.63;;;8.33;;
67595;SDS011;54410;48.694;8.934;2022-12-07T02:53:29;15.30;;;9.23;;
67595;SDS011;54410;48.694;8.934;2022-12-07T02:55:56;15.07;;;8.70;;
67595;SDS011;54410;48.694;8.934;2022-12-07T02:58:34;9.97;;;6.63;;
67595;SDS011;54410;48.694;8.934;2022-12-07T03:01:07;13.93;;;8.63;;
67595;SDS011;54410;48.694;8.934;2022-12-07T03:03:39;9.60;;;6.67;;
67595;SDS011;54410;48.694;8.934;2022-12-07T03:06:09;8.57;;;6.67;;
67595;SDS011;54410;48.694;8.934;2022-12-07T03:11:24;10.60;;;6.77;;
67595;SDS011;54410;48.694;8.934;2022-12-07T03:14:02;8.60;;;6.20;;
67595;SDS011;54410;48.694;8.934;2022-12-07T03:16:33;11.97;;;6.77;;
67595;SDS011;54410;48.694;8.934;2022-12-07T03:19:20;7.73;;;5.93;;
67595;SDS011;54410;48.694;8.934;2022-12-07T03:22:03;10.37;;;6.80;;
67595;SDS011;54410;48.694;8.934;2022-12-07T03:24:37;11.40;;;7.43;;
67595;SDS011;54410;48.694;8.934;2022-12-07T03:27:06;11.93;;;6.50;;
67595;SDS011;54410;48.694;8.934;2022-12-07T03:29:40;11.43;;;6.93;;
67595;SDS011;54410;48.694;8.934;2022-12-07T03:32:19;11.33;;;7.43;;
67595;SDS011;54410;48.694;8.934;2022-12-07T03:35:00;7.77;;;6.27;;
67595;SDS011;54410;48.694;8.934;2022-12-07T03:37:34;10.13;;;6.77;;
67595;SDS011;54410;48.694;8.934;2022-12-07T03:42:39;11.43;;;6.77;;
67595;SDS011;54410;48.694;8.934;2022-12-07T03:45:04;9.73;;;6.43;;
67595;SDS011;54410;48.694;8.934;2022-12-07T03:50:02;11.77;;;7.70;;
67595;SDS011;54410;48.694;8.934;2022-12-07T03:52:48;11.17;;;7.30;;
67595;SDS011;54410;48.694;8.934;2022-12-07T03:57:43;12.10;;;7.03;;
67595;SDS011;54410;48.694;8.934;2022-12-07T04:00:11;12.73;;;7.57;;
67595;SDS011;54410;48.694;8.934;2022-12-07T04:02:38;8.00;;;6.20;;
67595;SDS011;54410;48.694;8.934;2022-12-07T04:05:04;11.27;;;6.87;;
67595;SDS011;54410;48.694;8.934;2022-12-07T04:07:30;11.13;;;7.30;;
67595;SDS011;54410;48.694;8.934;2022-12-07T04:09:56;11.47;;;7.13;;
67595;SDS011;54410;48.694;8.934;2022-12-07T04:12:23;7.60;;;5.80;;
67595;SDS011;54410;48.694;8.934;2022-12-07T04:14:49;9.47;;;6.87;;
67595;SDS011;54410;48.694;8.934;2022-12-07T04:17:15;9.50;;;6.83;;
67595;SDS011;54410;48.694;8.934;2022-12-07T04:19:41;9.70;;;6.20;;
67595;SDS011;54410;48.694;8.934;2022-12-07T04:22:07;8.80;;;6.37;;
67595;SDS011;54410;48.694;8.934;2022-12-07T04:24:33;10.50;;;6.47;;
67595;SDS011;54410;48.694;8.934;2022-12-07T04:26:59;8.27;;;6.20;;
67595;SDS011;54410;48.694;8.934;2022-12-07T04:29:25;10.43;;;6.47;;
67595;SDS011;54410;48.694;8.934;2022-12-07T04:31:51;9.50;;;6.03;;
67595;SDS011;54410;48.694;8.934;2022-12-07T04:34:18;7.87;;;5.93;;
67595;SDS011;54410;48.694;8.934;2022-12-07T04:36:44;10.47;;;6.70;;
67595;SDS011;54410;48.694;8.934;2022-12-07T04:39:18;10.67;;;6.47;;
67595;SDS011;54410;48.694;8.934;2022-12-07T04:41:52;7.57;;;5.93;;
67595;SDS011;54410;48.694;8.934;2022-12-07T04:44:18;11.70;;;7.37;;
67595;SDS011;54410;48.694;8.934;2022-12-07T04:46:45;11.77;;;7.30;;
67595;SDS011;54410;48.694;8.934;2022-12-07T04:49:11;9.57;;;6.27;;
67595;SDS011;54410;48.694;8.934;2022-12-07T04:51:37;12.23;;;7.47;;
67595;SDS011;54410;48.694;8.934;2022-12-07T04:54:03;8.07;;;6.57;;
67595;SDS011;54410;48.694;8.934;2022-12-07T04:56:29;12.27;;;7.20;;
67595;SDS011;54410;48.694;8.934;2022-12-07T04:58:55;11.33;;;7.17;;
67595;SDS011;54410;48.694;8.934;2022-12-07T05:01:21;11.37;;;6.80;;
67595;SDS011;54410;48.694;8.934;2022-12-07T05:03:48;10.27;;;7.00;;
67595;SDS011;54410;48.694;8.934;2022-12-07T05:06:14;10.23;;;7.00;;
67595;SDS011;54410;48.694;8.934;2022-12-07T05:08:40;12.00;;;7.03;;
67595;SDS011;54410;48.694;8.934;2022-12-07T05:11:07;10.57;;;6.37;;
67595;SDS011;54410;48.694;8.934;2022-12-07T05:13:34;13.00;;;7.37;;
67595;SDS011;54410;48.694;8.934;2022-12-07T05:16:00;12.10;;;6.90;;
67595;SDS011;54410;48.694;8.934;2022-12-07T05:18:26;12.67;;;7.67;;
67595;SDS011;54410;48.694;8.934;2022-12-07T05:20:52;12.73;;;7.83;;
67595;SDS011;54410;48.694;8.934;2022-12-07T05:23:18;11.77;;;7.00;;
67595;SDS011;54410;48.694;8.934;2022-12-07T05:25:44;10.30;;;6.93;;
67595;SDS011;54410;48.694;8.934;2022-12-07T05:28:11;12.03;;;7.30;;
67595;SDS011;54410;48.694;8.934;2022-12-07T05:30:37;13.17;;;7.00;;
67595;SDS011;54410;48.694;8.934;2022-12-07T05:33:03;8.63;;;5.90;;
67595;SDS011;54410;48.694;8.934;2022-12-07T05:35:30;11.53;;;6.67;;
67595;SDS011;54410;48.694;8.934;2022-12-07T05:37:56;8.63;;;5.47;;
67595;SDS011;54410;48.694;8.934;2022-12-07T05:40:23;10.00;;;6.03;;
67595;SDS011;54410;48.694;8.934;2022-12-07T05:42:49;10.93;;;5.97;;
67595;SDS011;54410;48.694;8.934;2022-12-07T05:45:15;15.07;;;6.70;;
67595;SDS011;54410;48.694;8.934;2022-12-07T05:47:41;12.93;;;6.37;;
67595;SDS011;54410;48.694;8.934;2022-12-07T05:50:07;11.03;;;6.17;;
67595;SDS011;54410;48.694;8.934;2022-12-07T05:52:33;20.07;;;10.23;;
67595;SDS011;54410;48.694;8.934;2022-12-07T05:54:59;9.80;;;6.13;;
67595;SDS011;54410;48.694;8.934;2022-12-07T05:57:25;12.93;;;7.17;;
67595;SDS011;54410;48.694;8.934;2022-12-07T05:59:51;11.83;;;6.87;;
67595;SDS011;54410;48.694;8.934;2022-12-07T06:02:17;8.17;;;5.23;;
67595;SDS011;54410;48.694;8.934;2022-12-07T06:04:44;11.97;;;6.57;;
67595;SDS011;54410;48.694;8.934;2022-12-07T06:07:11;15.37;;;6.97;;
67595;SDS011;54410;48.694;8.934;2022-12-07T06:09:38;11.60;;;6.50;;
67595;SDS011;54410;48.694;8.934;2022-12-07T06:12:04;9.17;;;5.30;;
67595;SDS011;54410;48.694;8.934;2022-12-07T06:14:49;10.40;;;7.07;;
67595;SDS011;54410;48.694;8.934;2022-12-07T06:17:15;11.33;;;6.87;;
67595;SDS011;54410;48.694;8.934;2022-12-07T06:19:41;13.23;;;7.13;;
67595;SDS011;54410;48.694;8.934;2022-12-07T06:22:07;15.93;;;9.00;;
67595;SDS011;54410;48.694;8.934;2022-12-07T06:24:34;13.70;;;8.00;;
67595;SDS011;54410;48.694;8.934;2022-12-07T06:27:00;12.80;;;8.27;;
67595;SDS011;54410;48.694;8.934;2022-12-07T06:29:26;13.37;;;7.43;;
67595;SDS011;54410;48.694;8.934;2022-12-07T06:31:52;13.50;;;7.50;;
67595;SDS011;54410;48.694;8.934;2022-12-07T06:34:18;12.73;;;7.57;;
67595;SDS011;54410;48.694;8.934;2022-12-07T06:36:45;14.50;;;8.70;;
67595;SDS011;54410;48.694;8.934;2022-12-07T06:39:16;12.30;;;7.83;;
67595;SDS011;54410;48.694;8.934;2022-12-07T06:41:42;12.10;;;7.90;;
67595;SDS011;54410;48.694;8.934;2022-12-07T06:44:08;13.23;;;7.60;;
67595;SDS011;54410;48.694;8.934;2022-12-07T06:46:33;13.23;;;7.90;;
67595;SDS011;54410;48.694;8.934;2022-12-07T06:49:00;11.70;;;7.07;;
67595;SDS011;54410;48.694;8.934;2022-12-07T06:51:26;11.33;;;7.17;;
67595;SDS011;54410;48.694;8.934;2022-12-07T06:53:52;9.33;;;6.33;;
67595;SDS011;54410;48.694;8.934;2022-12-07T06:56:18;17.07;;;8.47;;
67595;SDS011;54410;48.694;8.934;2022-12-07T06:58:44;13.70;;;7.10;;
67595;SDS011;54410;48.694;8.934;2022-12-07T07:01:11;14.87;;;8.20;;
67595;SDS011;54410;48.694;8.934;2022-12-07T07:03:37;15.20;;;8.47;;
67595;SDS011;54410;48.694;8.934;2022-12-07T07:06:03;12.97;;;7.40;;
67595;SDS011;54410;48.694;8.934;2022-12-07T07:08:29;16.43;;;8.60;;
67595;SDS011;54410;48.694;8.934;2022-12-07T07:10:55;15.87;;;7.90;;
67595;SDS011;54410;48.694;8.934;2022-12-07T07:13:21;16.20;;;8.90;;
67595;SDS011;54410;48.694;8.934;2022-12-07T07:15:47;16.03;;;9.27;;
67595;SDS011;54410;48.694;8.934;2022-12-07T07:18:13;16.60;;;9.20;;
67595;SDS011;54410;48.694;8.934;2022-12-07T07:20:39;15.23;;;9.27;;
67595;SDS011;54410;48.694;8.934;2022-12-07T07:23:05;20.73;;;10.27;;
67595;SDS011;54410;48.694;8.934;2022-12-07T07:25:32;20.30;;;11.60;;
67595;SDS011;54410;48.694;8.934;2022-12-07T07:27:58;20.33;;;11.27;;
67595;SDS011;54410;48.694;8.934;2022-12-07T07:30:24;15.20;;;9.50;;
67595;SDS011;54410;48.694;8.934;2022-12-07T07:32:50;22.63;;;10.80;;
67595;SDS011;54410;48.694;8.934;2022-12-07T07:35:16;17.37;;;9.37;;
67595;SDS011;54410;48.694;8.934;2022-12-07T07:37:42;20.20;;;10.23;;
67595;SDS011;54410;48.694;8.934;2022-12-07T07:40:08;16.97;;;9.93;;
67595;SDS011;54410;48.694;8.934;2022-12-07T07:42:34;19.30;;;9.83;;
67595;SDS011;54410;48.694;8.934;2022-12-07T07:45:01;17.07;;;10.10;;
67595;SDS011;54410;48.694;8.934;2022-12-07T07:47:26;15.37;;;9.23;;
67595;SDS011;54410;48.694;8.934;2022-12-07T07:49:54;13.97;;;7.83;;
67595;SDS011;54410;48.694;8.934;2022-12-07T07:52:19;9.37;;;6.33;;
67595;SDS011;54410;48.694;8.934;2022-12-07T07:54:45;17.50;;;9.83;;
67595;SDS011;54410;48.694;8.934;2022-12-07T07:57:11;43.67;;;21.90;;
67595;SDS011;54410;48.694;8.934;2022-12-07T07:59:37;27.50;;;16.07;;
67595;SDS011;54410;48.694;8.934;2022-12-07T08:02:03;16.10;;;8.93;;
67595;SDS011;54410;48.694;8.934;2022-12-07T08:04:29;16.57;;;8.30;;
67595;SDS011;54410;48.694;8.934;2022-12-07T08:06:56;12.20;;;7.43;;
67595;SDS011;54410;48.694;8.934;2022-12-07T08:09:21;12.07;;;7.17;;
67595;SDS011;54410;48.694;8.934;2022-12-07T08:11:47;9.40;;;6.07;;
67595;SDS011;54410;48.694;8.934;2022-12-07T08:14:13;11.40;;;6.90;;
67595;SDS011;54410;48.694;8.934;2022-12-07T08:16:39;10.40;;;6.47;;
67595;SDS011;54410;48.694;8.934;2022-12-07T08:19:06;12.67;;;7.20;;
67595;SDS011;54410;48.694;8.934;2022-12-07T08:21:32;9.60;;;6.23;;
67595;SDS011;54410;48.694;8.934;2022-12-07T08:23:58;11.33;;;6.50;;
67595;SDS011;54410;48.694;8.934;2022-12-07T08:26:24;8.33;;;5.50;;
67595;SDS011;54410;48.694;8.934;2022-12-07T08:28:50;8.47;;;5.50;;
67595;SDS011;54410;48.694;8.934;2022-12-07T08:31:17;9.33;;;6.20;;
67595;SDS011;54410;48.694;8.934;2022-12-07T08:33:44;10.50;;;6.27;;
67595;SDS011;54410;48.694;8.934;2022-12-07T08:36:11;8.63;;;6.20;;
67595;SDS011;54410;48.694;8.934;2022-12-07T08:38:38;14.80;;;7.00;;
67595;SDS011;54410;48.694;8.934;2022-12-07T08:41:04;8.63;;;5.80;;
67595;SDS011;54410;48.694;8.934;2022-12-07T08:43:31;10.93;;;6.73;;
67595;SDS011;54410;48.694;8.934;2022-12-07T08:48:25;7.07;;;5.17;;
67595;SDS011;54410;48.694;8.934;2022-12-07T08:50:51;13.13;;;7.03;;
67595;SDS011;54410;48.694;8.934;2022-12-07T08:53:17;8.97;;;5.67;;
67595;SDS011;54410;48.694;8.934;2022-12-07T08:55:44;7.60;;;4.77;;
67595;SDS011;54410;48.694;8.934;2022-12-07T08:58:10;7.87;;;5.27;;
67595;SDS011;54410;48.694;8.934;2022-12-07T09:00:36;5.87;;;4.30;;
67595;SDS011;54410;48.694;8.934;2022-12-07T09:03:02;10.33;;;5.53;;
67595;SDS011;54410;48.694;8.934;2022-12-07T09:05:28;6.07;;;4.93;;
67595;SDS011;54410;48.694;8.934;2022-12-07T09:07:55;6.93;;;4.60;;
67595;SDS011;54410;48.694;8.934;2022-12-07T09:10:22;7.60;;;4.63;;
67595;SDS011;54410;48.694;8.934;2022-12-07T09:12:48;5.27;;;3.83;;
67595;SDS011;54410;48.694;8.934;2022-12-07T09:15:14;17.60;;;9.73;;
67595;SDS011;54410;48.694;8.934;2022-12-07T09:17:40;11.13;;;7.17;;
67595;SDS011;54410;48.694;8.934;2022-12-07T09:20:06;22.20;;;10.77;;
67595;SDS011;54410;48.694;8.934;2022-12-07T09:22:33;8.47;;;5.63;;
67595;SDS011;54410;48.694;8.934;2022-12-07T09:24:59;6.93;;;4.63;;
67595;SDS011;54410;48.694;8.934;2022-12-07T09:27:26;19.60;;;10.07;;
67595;SDS011;54410;48.694;8.934;2022-12-07T09:29:52;6.50;;;4.40;;
67595;SDS011;54410;48.694;8.934;2022-12-07T09:32:18;8.03;;;3.80;;
67595;SDS011;54410;48.694;8.934;2022-12-07T09:34:44;5.67;;;4.20;;
67595;SDS011;54410;48.694;8.934;2022-12-07T09:37:10;16.70;;;8.43;;
67595;SDS011;54410;48.694;8.934;2022-12-07T09:39:39;10.60;;;6.97;;
67595;SDS011;54410;48.694;8.934;2022-12-07T09:42:06;5.03;;;4.10;;
67595;SDS011;54410;48.694;8.934;2022-12-07T09:44:32;4.00;;;3.53;;
67595;SDS011;54410;48.694;8.934;2022-12-07T09:46:59;5.40;;;3.37;;
67595;SDS011;54410;48.694;8.934;2022-12-07T09:49:25;4.47;;;3.30;;
67595;SDS011;54410;48.694;8.934;2022-12-07T09:52:27;3.40;;;3.10;;
67595;SDS011;54410;48.694;8.934;2022-12-07T09:54:46;3.30;;;2.73;;
67595;SDS011;54410;48.694;8.934;2022-12-07T09:57:13;3.47;;;3.10;;
67595;SDS011;54410;48.694;8.934;2022-12-07T09:59:38;4.13;;;3.10;;
67595;SDS011;54410;48.694;8.934;2022-12-07T10:02:39;4.17;;;3.60;;
67595;SDS011;54410;48.694;8.934;2022-12-07T10:04:57;4.63;;;3.17;;
67595;SDS011;54410;48.694;8.934;2022-12-07T10:07:24;4.63;;;3.23;;
67595;SDS011;54410;48.694;8.934;2022-12-07T10:09:50;6.13;;;3.33;;
67595;SDS011;54410;48.694;8.934;2022-12-07T10:12:16;4.37;;;3.50;;
67595;SDS011;54410;48.694;8.934;2022-12-07T10:17:31;3.37;;;3.00;;
67595;SDS011;54410;48.694;8.934;2022-12-07T10:25:20;3.43;;;3.13;;
67595;SDS011;54410;48.694;8.934;2022-12-07T10:28:33;3.40;;;2.77;;
67595;SDS011;54410;48.694;8.934;2022-12-07T10:30:33;4.63;;;3.30;;
67595;SDS011;54410;48.694;8.934;2022-12-07T10:33:22;3.70;;;2.67;;
67595;SDS011;54410;48.694;8.934;2022-12-07T10:35:53;3.13;;;2.83;;
67595;SDS011;54410;48.694;8.934;2022-12-07T10:38:19;3.53;;;2.37;;
67595;SDS011;54410;48.694;8.934;2022-12-07T10:40:45;2.73;;;2.50;;
67595;SDS011;54410;48.694;8.934;2022-12-07T10:48:34;4.03;;;3.10;;
67595;SDS011;54410;48.694;8.934;2022-12-07T10:58:36;4.30;;;3.30;;
67595;SDS011;54410;48.694;8.934;2022-12-07T11:01:34;4.90;;;3.50;;
67595;SDS011;54410;48.694;8.934;2022-12-07T11:11:35;3.10;;;2.80;;
67595;SDS011;54410;48.694;8.934;2022-12-07T11:17:26;3.37;;;2.70;;
67595;SDS011;54410;48.694;8.934;2022-12-07T11:33:36;3.70;;;2.70;;
67595;SDS011;54410;48.694;8.934;2022-12-07T11:36:17;6.90;;;3.40;;
67595;SDS011;54410;48.694;8.934;2022-12-07T11:38:50;3.80;;;3.30;;
67595;SDS011;54410;48.694;8.934;2022-12-07T11:41:20;3.83;;;2.60;;
67595;SDS011;54410;48.694;8.934;2022-12-07T11:46:18;4.37;;;3.30;;
67595;SDS011;54410;48.694;8.934;2022-12-07T11:48:47;3.67;;;2.90;;
67595;SDS011;54410;48.694;8.934;2022-12-07T11:51:15;2.93;;;2.47;;
67595;SDS011;54410;48.694;8.934;2022-12-07T11:53:48;3.07;;;2.77;;
67595;SDS011;54410;48.694;8.934;2022-12-07T11:56:16;4.07;;;3.07;;
67595;SDS011;54410;48.694;8.934;2022-12-07T11:58:57;3.27;;;2.10;;
67595;SDS011;54410;48.694;8.934;2022-12-07T12:06:24;2.50;;;2.00;;
67595;SDS011;54410;48.694;8.934;2022-12-07T12:09:00;1.80;;;1.70;;
67595;SDS011;54410;48.694;8.934;2022-12-07T12:21:59;2.10;;;1.90;;
67595;SDS011;54410;48.694;8.934;2022-12-07T12:24:35;2.13;;;1.93;;
67595;SDS011;54410;48.694;8.934;2022-12-07T12:27:26;2.87;;;2.13;;
67595;SDS011;54410;48.694;8.934;2022-12-07T12:29:52;2.73;;;1.77;;
67595;SDS011;54410;48.694;8.934;2022-12-07T12:32:39;1.80;;;1.70;;
67595;SDS011;54410;48.694;8.934;2022-12-07T12:35:26;2.40;;;2.03;;
67595;SDS011;54410;48.694;8.934;2022-12-07T12:37:53;2.20;;;2.00;;
67595;SDS011;54410;48.694;8.934;2022-12-07T12:50:41;4.90;;;3.53;;
67595;SDS011;54410;48.694;8.934;2022-12-07T12:53:13;3.30;;;2.47;;
67595;SDS011;54410;48.694;8.934;2022-12-07T13:00:48;4.83;;;3.50;;
67595;SDS011;54410;48.694;8.934;2022-12-07T13:03:30;5.37;;;3.07;;
67595;SDS011;54410;48.694;8.934;2022-12-07T13:08:44;4.37;;;3.00;;
67595;SDS011;54410;48.694;8.934;2022-12-07T13:11:18;3.57;;;2.80;;
67595;SDS011;54410;48.694;8.934;2022-12-07T13:13:45;3.10;;;2.53;;
67595;SDS011;54410;48.694;8.934;2022-12-07T13:18:37;2.83;;;2.60;;
67595;SDS011;54410;48.694;8.934;2022-12-07T13:28:37;4.83;;;3.10;;
67595;SDS011;54410;48.694;8.934;2022-12-07T13:33:37;5.07;;;3.30;;
67595;SDS011;54410;48.694;8.934;2022-12-07T13:36:03;3.23;;;2.90;;
67595;SDS011;54410;48.694;8.934;2022-12-07T13:38:33;4.33;;;3.37;;
67595;SDS011;54410;48.694;8.934;2022-12-07T13:41:14;4.00;;;3.00;;
67595;SDS011;54410;48.694;8.934;2022-12-07T13:43:44;4.57;;;3.30;;
67595;SDS011;54410;48.694;8.934;2022-12-07T13:46:11;5.77;;;3.93;;
67595;SDS011;54410;48.694;8.934;2022-12-07T13:48:44;4.73;;;3.23;;
67595;SDS011;54410;48.694;8.934;2022-12-07T13:51:24;5.23;;;3.63;;
67595;SDS011;54410;48.694;8.934;2022-12-07T13:53:55;8.47;;;4.67;;
67595;SDS011;54410;48.694;8.934;2022-12-07T13:56:22;6.07;;;3.50;;
67595;SDS011;54410;48.694;8.934;2022-12-07T13:58:51;4.57;;;3.97;;
67595;SDS011;54410;48.694;8.934;2022-12-07T14:01:17;9.37;;;4.23;;
67595;SDS011;54410;48.694;8.934;2022-12-07T14:03:43;6.80;;;4.27;;
67595;SDS011;54410;48.694;8.934;2022-12-07T14:06:14;6.37;;;4.50;;
67595;SDS011;54410;48.694;8.934;2022-12-07T14:08:40;4.13;;;3.40;;
67595;SDS011;54410;48.694;8.934;2022-12-07T14:11:06;6.63;;;4.90;;
67595;SDS011;54410;48.694;8.934;2022-12-07T14:13:36;8.57;;;4.70;;
67595;SDS011;54410;48.694;8.934;2022-12-07T14:16:06;7.50;;;4.40;;
67595;SDS011;54410;48.694;8.934;2022-12-07T14:18:43;7.47;;;4.67;;
67595;SDS011;54410;48.694;8.934;2022-12-07T14:23:35;6.90;;;5.03;;
67595;SDS011;54410;48.694;8.934;2022-12-07T14:26:10;5.33;;;3.70;;
67595;SDS011;54410;48.694;8.934;2022-12-07T14:28:37;6.80;;;5.30;;
67595;SDS011;54410;48.694;8.934;2022-12-07T14:31:03;6.10;;;4.37;;
67595;SDS011;54410;48.694;8.934;2022-12-07T14:33:33;6.83;;;4.80;;
67595;SDS011;54410;48.694;8.934;2022-12-07T14:35:59;4.93;;;3.77;;
67595;SDS011;54410;48.694;8.934;2022-12-07T14:38:25;5.27;;;4.37;;
67595;SDS011;54410;48.694;8.934;2022-12-07T14:40:51;5.93;;;4.30;;
67595;SDS011;54410;48.694;8.934;2022-12-07T14:43:18;5.67;;;4.13;;
67595;SDS011;54410;48.694;8.934;2022-12-07T14:45:44;7.83;;;5.43;;
67595;SDS011;54410;48.694;8.934;2022-12-07T14:48:10;7.03;;;4.80;;
67595;SDS011;54410;48.694;8.934;2022-12-07T14:50:39;8.43;;;5.43;;
67595;SDS011;54410;48.694;8.934;2022-12-07T14:53:12;9.73;;;6.13;;
67595;SDS011;54410;48.694;8.934;2022-12-07T14:55:39;15.00;;;8.30;;
67595;SDS011;54410;48.694;8.934;2022-12-07T14:58:05;14.83;;;8.40;;
67595;SDS011;54410;48.694;8.934;2022-12-07T15:00:31;12.10;;;7.37;;
67595;SDS011;54410;48.694;8.934;2022-12-07T15:02:59;7.00;;;5.40;;
67595;SDS011;54410;48.694;8.934;2022-12-07T15:05:25;6.80;;;5.10;;
67595;SDS011;54410;48.694;8.934;2022-12-07T15:07:51;10.50;;;5.87;;
67595;SDS011;54410;48.694;8.934;2022-12-07T15:10:18;14.37;;;8.97;;
67595;SDS011;54410;48.694;8.934;2022-12-07T15:12:45;9.80;;;6.70;;
67595;SDS011;54410;48.694;8.934;2022-12-07T15:15:11;7.77;;;5.43;;
67595;SDS011;54410;48.694;8.934;2022-12-07T15:17:37;7.37;;;5.87;;
67595;SDS011;54410;48.694;8.934;2022-12-07T15:20:03;11.73;;;7.40;;
67595;SDS011;54410;48.694;8.934;2022-12-07T15:22:29;7.17;;;5.33;;
67595;SDS011;54410;48.694;8.934;2022-12-07T15:24:56;9.00;;;7.50;;
67595;SDS011;54410;48.694;8.934;2022-12-07T15:27:22;8.20;;;6.13;;
67595;SDS011;54410;48.694;8.934;2022-12-07T15:29:48;7.07;;;5.27;;
67595;SDS011;54410;48.694;8.934;2022-12-07T15:32:14;10.73;;;6.80;;
67595;SDS011;54410;48.694;8.934;2022-12-07T15:34:40;10.07;;;7.30;;
67595;SDS011;54410;48.694;8.934;2022-12-07T15:37:06;10.70;;;7.23;;
67595;SDS011;54410;48.694;8.934;2022-12-07T15:39:32;11.50;;;6.47;;
67595;SDS011;54410;48.694;8.934;2022-12-07T15:41:58;11.83;;;7.37;;
67595;SDS011;54410;48.694;8.934;2022-12-07T15:44:24;11.13;;;7.13;;
67595;SDS011;54410;48.694;8.934;2022-12-07T15:47:09;15.97;;;9.30;;
67595;SDS011;54410;48.694;8.934;2022-12-07T15:49:35;10.13;;;7.13;;
67595;SDS011;54410;48.694;8.934;2022-12-07T15:52:01;13.80;;;7.63;;
67595;SDS011;54410;48.694;8.934;2022-12-07T15:54:28;13.33;;;7.93;;
67595;SDS011;54410;48.694;8.934;2022-12-07T15:56:54;9.33;;;6.37;;
67595;SDS011;54410;48.694;8.934;2022-12-07T15:59:20;14.33;;;8.23;;
67595;SDS011;54410;48.694;8.934;2022-12-07T16:01:46;11.70;;;7.63;;
67595;SDS011;54410;48.694;8.934;2022-12-07T16:04:12;11.90;;;6.67;;
67595;SDS011;54410;48.694;8.934;2022-12-07T16:06:38;9.30;;;6.20;;
67595;SDS011;54410;48.694;8.934;2022-12-07T16:09:04;8.67;;;5.90;;
67595;SDS011;54410;48.694;8.934;2022-12-07T16:11:31;8.43;;;5.70;;
67595;SDS011;54410;48.694;8.934;2022-12-07T16:13:57;9.47;;;5.63;;
67595;SDS011;54410;48.694;8.934;2022-12-07T16:16:23;9.73;;;5.40;;
67595;SDS011;54410;48.694;8.934;2022-12-07T16:18:49;11.63;;;5.90;;
67595;SDS011;54410;48.694;8.934;2022-12-07T16:21:16;8.43;;;5.67;;
67595;SDS011;54410;48.694;8.934;2022-12-07T16:23:42;8.27;;;5.10;;
67595;SDS011;54410;48.694;8.934;2022-12-07T16:26:18;6.83;;;5.20;;
67595;SDS011;54410;48.694;8.934;2022-12-07T16:28:45;8.53;;;6.27;;
67595;SDS011;54410;48.694;8.934;2022-12-07T16:31:14;9.47;;;6.97;;
67595;SDS011;54410;48.694;8.934;2022-12-07T16:33:41;12.10;;;6.63;;
67595;SDS011;54410;48.694;8.934;2022-12-07T16:36:08;9.50;;;6.80;;
67595;SDS011;54410;48.694;8.934;2022-12-07T16:38:34;8.17;;;5.73;;
67595;SDS011;54410;48.694;8.934;2022-12-07T16:41:01;6.37;;;5.07;;
67595;SDS011;54410;48.694;8.934;2022-12-07T16:43:27;12.17;;;6.80;;
67595;SDS011;54410;48.694;8.934;2022-12-07T16:45:53;10.10;;;6.20;;
67595;SDS011;54410;48.694;8.934;2022-12-07T16:48:18;11.83;;;6.80;;
67595;SDS011;54410;48.694;8.934;2022-12-07T16:50:44;9.93;;;7.20;;
67595;SDS011;54410;48.694;8.934;2022-12-07T16:53:11;12.80;;;7.63;;
67595;SDS011;54410;48.694;8.934;2022-12-07T16:55:42;11.73;;;7.30;;
67595;SDS011;54410;48.694;8.934;2022-12-07T16:58:09;13.70;;;8.63;;
67595;SDS011;54410;48.694;8.934;2022-12-07T17:00:35;10.40;;;7.33;;